Time;durP1;ratioP1;P1;durP2;ratioP2;P2;SDS_P1;SDS_P2;PMS_P1;PMS_P2;Temp;Humidity;BMP_temperature;BMP_pressure;BME280_temperature;BME280_humidity;BME280_pressure;Samples;Min_cycle;Max_cycle;Signal;HPM_P1;HPM_P2
2023/05/27 00:01:01;;;;;;;26.10;6.93;;;8.40;1.00;;;;;;5005602;28;20636;-55
2023/05/27 00:03:27;;;;;;;19.80;5.10;;;8.40;99.90;;;;;;5005118;28;20555;-55
2023/05/27 00:05:52;;;;;;;14.40;5.37;;;8.30;1.00;;;;;;5003785;28;20189;-54
2023/05/27 00:08:18;;;;;;;22.87;5.70;;;8.30;1.00;;;;;;5006545;28;20402;-55
2023/05/27 00:10:44;;;;;;;22.37;6.83;;;8.30;99.90;;;;;;5005480;28;20569;-55
2023/05/27 00:13:10;;;;;;;23.60;6.23;;;8.20;99.90;;;;;;5003399;28;20201;-55
2023/05/27 00:15:39;;;;;;;22.00;5.33;;;8.20;1.00;;;;;;5003832;28;20435;-54
2023/05/27 00:18:05;;;;;;;23.63;5.70;;;8.20;1.00;;;;;;5004322;28;20199;-55
2023/05/27 00:20:30;;;;;;;20.37;5.10;;;8.10;1.00;;;;;;5004908;28;20446;-54
2023/05/27 00:22:56;;;;;;;25.33;5.90;;;8.10;1.00;;;;;;5004702;28;20244;-54
2023/05/27 00:25:22;;;;;;;24.77;5.53;;;8.10;1.00;;;;;;5001463;28;20191;-55
2023/05/27 00:27:48;;;;;;;21.93;5.70;;;8.00;1.00;;;;;;5001207;28;20985;-54
2023/05/27 00:30:15;;;;;;;23.37;5.27;;;8.00;1.00;;;;;;5005096;28;20562;-55
2023/05/27 00:32:41;;;;;;;21.23;5.87;;;7.90;1.00;;;;;;5004540;28;20437;-55
2023/05/27 00:35:08;;;;;;;24.73;5.87;;;7.90;1.00;;;;;;5002162;28;20432;-55
2023/05/27 00:37:33;;;;;;;18.83;6.10;;;7.90;1.00;;;;;;5004464;28;20656;-55
2023/05/27 00:39:59;;;;;;;21.03;5.83;;;7.80;7.10;;;;;;5005400;28;20465;-55
2023/05/27 00:42:25;;;;;;;22.77;6.20;;;7.80;39.10;;;;;;5004689;28;20216;-55
2023/05/27 00:44:50;;;;;;;22.23;6.37;;;7.80;81.30;;;;;;5003965;28;20510;-54
2023/05/27 00:47:17;;;;;;;30.30;5.77;;;7.80;99.90;;;;;;5002008;28;20200;-55
2023/05/27 00:49:44;;;;;;;18.70;5.93;;;7.70;99.90;;;;;;5007002;28;20556;-54
2023/05/27 00:52:09;;;;;;;21.87;6.47;;;7.70;99.90;;;;;;5003280;28;20926;-55
2023/05/27 00:54:35;;;;;;;24.83;5.40;;;7.70;99.90;;;;;;5003461;28;20450;-55
2023/05/27 00:57:02;;;;;;;30.17;6.13;;;7.70;99.90;;;;;;5002275;28;20233;-55
2023/05/27 00:59:28;;;;;;;27.23;6.33;;;7.60;99.90;;;;;;5002665;28;20188;-55
2023/05/27 01:01:54;;;;;;;27.70;5.50;;;7.60;99.90;;;;;;5004841;28;20443;-55
2023/05/27 01:04:20;;;;;;;21.13;6.33;;;7.60;99.90;;;;;;5000540;28;20435;-54
2023/05/27 01:06:53;;;;;;;20.37;5.93;;;7.60;99.90;;;;;;5003155;28;20188;-54
2023/05/27 01:09:41;;;;;;;22.33;6.40;;;7.50;99.90;;;;;;5001314;28;21066;-54
2023/05/27 01:12:37;;;;;;;24.10;5.40;;;7.50;99.90;;;;;;5005332;28;20456;-55
2023/05/27 01:15:05;;;;;;;20.63;6.43;;;7.50;99.90;;;;;;5003736;28;20439;-55
2023/05/27 01:17:33;;;;;;;24.07;7.03;;;7.40;99.90;;;;;;5003004;28;20444;-54
2023/05/27 01:20:00;;;;;;;17.70;5.73;;;7.40;99.90;;;;;;4996363;28;20443;-54
2023/05/27 01:22:30;;;;;;;26.87;6.90;;;7.40;99.90;;;;;;5001801;28;20452;-55
2023/05/27 01:24:55;;;;;;;35.43;6.80;;;7.40;99.90;;;;;;5007401;28;20441;-55
2023/05/27 01:27:24;;;;;;;22.80;6.00;;;7.40;99.90;;;;;;5001244;28;20440;-55
2023/05/27 01:29:51;;;;;;;29.70;6.50;;;7.40;99.90;;;;;;5001276;28;20232;-55
2023/05/27 01:32:23;;;;;;;21.57;6.40;;;7.30;99.90;;;;;;5001069;28;20458;-55
2023/05/27 01:35:11;;;;;;;21.30;5.90;;;7.30;99.90;;;;;;5001171;28;20439;-54
2023/05/27 01:37:40;;;;;;;32.20;7.20;;;7.30;99.90;;;;;;5000646;28;20495;-55
2023/05/27 01:40:08;;;;;;;22.23;6.67;;;7.30;99.90;;;;;;5003221;28;20790;-54
2023/05/27 01:42:38;;;;;;;24.33;6.47;;;7.20;99.90;;;;;;4999893;28;20522;-55
2023/05/27 01:45:06;;;;;;;18.37;6.03;;;7.20;99.90;;;;;;5002342;28;20953;-55
2023/05/27 01:47:32;;;;;;;27.23;7.37;;;7.20;99.90;;;;;;5005344;28;20443;-54
2023/05/27 01:49:57;;;;;;;26.47;6.77;;;7.20;99.90;;;;;;5000714;28;20483;-55
2023/05/27 01:52:24;;;;;;;21.97;7.10;;;7.20;99.90;;;;;;5006125;28;20180;-54
2023/05/27 01:54:49;;;;;;;25.10;7.53;;;7.20;99.90;;;;;;5001220;28;20188;-54
2023/05/27 01:57:15;;;;;;;29.07;6.90;;;7.10;99.90;;;;;;5007094;28;20493;-54
2023/05/27 01:59:41;;;;;;;24.47;7.77;;;7.10;99.90;;;;;;5000844;28;20641;-54
2023/05/27 02:02:07;;;;;;;18.53;6.70;;;7.10;99.90;;;;;;5010388;28;20572;-54
2023/05/27 02:04:32;;;;;;;27.10;6.67;;;7.10;99.90;;;;;;5006661;28;20195;-57
2023/05/27 02:06:58;;;;;;;23.90;6.80;;;7.10;99.90;;;;;;5002906;28;20192;-55
2023/05/27 02:09:24;;;;;;;17.80;7.60;;;7.00;99.90;;;;;;5002991;28;20216;-54
2023/05/27 02:11:49;;;;;;;27.57;8.07;;;7.00;99.90;;;;;;5004138;28;20193;-54
2023/05/27 02:14:15;;;;;;;23.40;7.20;;;7.00;99.90;;;;;;5002806;28;20183;-54
2023/05/27 02:16:40;;;;;;;25.07;7.40;;;6.90;99.90;;;;;;4996399;28;20271;-54
2023/05/27 02:19:06;;;;;;;30.97;6.67;;;6.90;99.90;;;;;;5003077;28;20187;-54
2023/05/27 02:21:32;;;;;;;25.70;6.73;;;6.90;99.90;;;;;;5002130;28;20193;-54
2023/05/27 02:23:58;;;;;;;24.40;7.37;;;6.90;99.90;;;;;;5001024;28;20180;-55
2023/05/27 02:26:23;;;;;;;28.77;6.90;;;6.90;99.90;;;;;;5006059;28;20566;-54
2023/05/27 02:28:49;;;;;;;27.00;6.30;;;6.90;99.90;;;;;;4999865;28;20200;-54
2023/05/27 02:31:15;;;;;;;22.53;6.97;;;6.80;99.90;;;;;;5002011;28;20197;-53
2023/05/27 02:33:41;;;;;;;21.70;6.63;;;6.80;99.90;;;;;;4999606;28;20444;-54
2023/05/27 02:36:06;;;;;;;28.70;6.10;;;6.80;99.90;;;;;;5007034;28;20191;-54
2023/05/27 02:38:32;;;;;;;23.90;6.97;;;6.70;99.90;;;;;;5004231;28;20675;-53
2023/05/27 02:40:58;;;;;;;14.60;5.57;;;6.70;99.90;;;;;;5001551;28;20190;-54
2023/05/27 02:43:24;;;;;;;25.87;7.20;;;6.70;99.90;;;;;;5005244;28;20436;-53
2023/05/27 02:45:50;;;;;;;19.00;6.17;;;6.70;99.90;;;;;;4996933;28;20193;-54
2023/05/27 02:48:15;;;;;;;43.00;19.10;;;6.70;99.90;;;;;;5005398;28;20839;-54
2023/05/27 02:50:41;;;;;;;33.67;15.20;;;6.60;99.90;;;;;;5004541;28;20683;-54
2023/05/27 02:53:07;;;;;;;24.80;8.37;;;6.60;99.90;;;;;;5006799;28;20255;-54
2023/05/27 02:55:32;;;;;;;58.43;27.53;;;6.60;99.90;;;;;;5003200;28;20240;-55
2023/05/27 02:57:58;;;;;;;27.30;14.07;;;6.60;99.90;;;;;;5006409;28;20190;-56
2023/05/27 03:00:23;;;;;;;30.83;9.70;;;6.60;99.90;;;;;;5004445;28;20188;-53
2023/05/27 03:02:49;;;;;;;22.57;8.57;;;6.60;99.90;;;;;;5006846;28;20193;-55
2023/05/27 03:05:15;;;;;;;26.20;8.10;;;6.60;99.90;;;;;;5008696;28;20176;-53
2023/05/27 03:07:41;;;;;;;23.17;6.90;;;6.60;99.90;;;;;;5004250;28;20582;-52
2023/05/27 03:10:07;;;;;;;21.37;6.80;;;6.60;99.90;;;;;;5007929;28;20714;-52
2023/05/27 03:12:33;;;;;;;19.70;6.90;;;6.60;99.90;;;;;;4990967;28;20440;-53
2023/05/27 03:14:59;;;;;;;24.00;6.37;;;6.60;99.90;;;;;;5007374;28;20432;-54
2023/05/27 03:17:25;;;;;;;22.67;7.33;;;6.50;99.90;;;;;;5002896;28;20514;-53
2023/05/27 03:19:50;;;;;;;29.57;8.23;;;6.50;99.90;;;;;;5008621;28;20943;-53
2023/05/27 03:22:16;;;;;;;13.70;5.43;;;6.50;99.90;;;;;;5012238;28;20492;-53
2023/05/27 03:24:42;;;;;;;25.17;6.60;;;6.50;99.90;;;;;;5007351;28;20671;-51
2023/05/27 03:27:08;;;;;;;25.40;7.03;;;6.60;99.90;;;;;;5010695;28;20430;-53
2023/05/27 03:29:34;;;;;;;26.23;7.03;;;6.50;99.90;;;;;;5001829;28;20679;-53
2023/05/27 03:32:00;;;;;;;27.20;7.23;;;6.60;99.90;;;;;;5006321;28;20193;-53
2023/05/27 03:34:26;;;;;;;29.33;7.60;;;6.50;99.90;;;;;;5008946;28;20454;-53
2023/05/27 03:36:51;;;;;;;16.33;6.30;;;6.60;99.90;;;;;;5005770;28;20574;-53
2023/05/27 03:39:17;;;;;;;23.23;7.47;;;6.60;99.90;;;;;;5009633;28;20239;-53
2023/05/27 03:41:43;;;;;;;27.33;7.13;;;6.60;99.90;;;;;;5006895;28;20181;-53
2023/05/27 03:44:09;;;;;;;23.87;6.93;;;6.60;99.90;;;;;;5005567;28;20195;-53
2023/05/27 03:46:35;;;;;;;25.93;7.60;;;6.70;99.90;;;;;;5005419;28;20447;-53
2023/05/27 03:49:01;;;;;;;18.93;6.20;;;6.70;99.90;;;;;;5007160;28;20276;-53
2023/05/27 03:51:27;;;;;;;28.93;7.40;;;6.70;99.90;;;;;;5006625;28;20800;-52
2023/05/27 03:53:52;;;;;;;25.77;7.60;;;6.70;99.90;;;;;;5003526;28;20439;-53
2023/05/27 03:56:18;;;;;;;28.97;7.20;;;6.80;99.90;;;;;;5005605;28;20246;-53
2023/05/27 03:58:44;;;;;;;24.20;7.27;;;6.80;99.90;;;;;;5003574;28;20189;-53
2023/05/27 04:01:10;;;;;;;23.33;7.40;;;6.80;99.90;;;;;;5005572;28;20626;-53
2023/05/27 04:03:37;;;;;;;17.63;7.07;;;6.80;99.90;;;;;;5005550;28;20184;-53
2023/05/27 04:06:03;;;;;;;19.80;7.10;;;6.90;99.90;;;;;;5005211;28;20239;-53
2023/05/27 04:08:28;;;;;;;23.03;6.93;;;6.90;99.90;;;;;;5007402;28;20925;-54
2023/05/27 04:10:57;;;;;;;21.23;6.90;;;7.00;99.90;;;;;;5009395;28;20473;-54
2023/05/27 04:13:22;;;;;;;28.23;7.47;;;7.00;99.90;;;;;;5005756;28;20636;-55
2023/05/27 04:15:48;;;;;;;21.23;6.97;;;7.10;99.90;;;;;;5005071;28;20567;-53
2023/05/27 04:18:14;;;;;;;24.70;7.57;;;7.10;99.90;;;;;;5007543;28;20173;-53
2023/05/27 04:20:42;;;;;;;24.53;7.60;;;7.20;99.90;;;;;;5008664;28;20648;-54
2023/05/27 04:23:09;;;;;;;16.83;6.67;;;7.30;99.90;;;;;;5007317;28;20191;-53
2023/05/27 04:25:35;;;;;;;21.83;7.43;;;7.30;99.90;;;;;;5001017;28;20455;-53
2023/05/27 04:28:04;;;;;;;22.50;7.60;;;7.40;99.90;;;;;;5004632;28;20442;-53
2023/05/27 04:30:30;;;;;;;25.00;7.10;;;7.50;99.90;;;;;;4990247;28;20692;-54
2023/05/27 04:32:56;;;;;;;31.40;7.90;;;7.60;99.90;;;;;;5005244;28;21229;-53
2023/05/27 04:35:23;;;;;;;22.63;7.40;;;7.60;99.90;;;;;;5004381;28;20935;-53
2023/05/27 04:37:48;;;;;;;23.37;6.73;;;7.70;99.90;;;;;;5004786;28;20185;-53
2023/05/27 04:40:14;;;;;;;13.97;6.00;;;7.90;99.90;;;;;;5007918;28;20440;-53
2023/05/27 04:42:40;;;;;;;30.13;7.83;;;8.00;99.90;;;;;;5006693;28;20276;-53
2023/05/27 04:45:08;;;;;;;25.90;6.77;;;8.10;99.90;;;;;;5006572;28;20192;-53
2023/05/27 04:47:36;;;;;;;22.90;7.17;;;8.20;99.90;;;;;;5007377;28;20195;-53
2023/05/27 04:50:05;;;;;;;26.10;7.60;;;8.40;99.90;;;;;;4999307;28;20542;-53
2023/05/27 04:52:36;;;;;;;30.63;7.63;;;8.50;99.90;;;;;;5002905;28;20462;-54
2023/05/27 04:55:03;;;;;;;25.80;6.70;;;8.50;99.90;;;;;;5003080;28;20955;-54
2023/05/27 04:57:29;;;;;;;35.10;8.30;;;8.70;99.90;;;;;;5004925;28;20514;-54
2023/05/27 05:02:38;;;;;;;18.03;7.50;;;9.00;99.90;;;;;;5007404;28;20592;-54
2023/05/27 05:05:06;;;;;;;20.53;6.20;;;9.10;99.90;;;;;;5002496;28;20789;-54
2023/05/27 05:07:37;;;;;;;21.10;6.97;;;9.30;99.90;;;;;;5004249;28;20457;-53
2023/05/27 05:10:12;;;;;;;20.50;6.43;;;9.40;99.90;;;;;;5003818;28;20878;-54
2023/05/27 05:12:38;;;;;;;20.13;6.57;;;9.50;99.90;;;;;;5000776;28;20522;-54
2023/05/27 05:15:05;;;;;;;17.70;6.70;;;9.70;99.90;;;;;;5006340;28;20991;-53
2023/05/27 05:17:31;;;;;;;16.50;6.80;;;9.80;99.90;;;;;;5006842;28;20590;-54
2023/05/27 05:19:56;;;;;;;27.23;6.83;;;10.00;99.90;;;;;;5004065;28;20430;-53
2023/05/27 05:22:23;;;;;;;15.90;6.03;;;10.00;1.00;;;;;;5005132;28;20636;-54
2023/05/27 05:24:49;;;;;;;22.90;7.20;;;10.20;17.80;;;;;;5003537;28;20179;-53
2023/05/27 05:27:15;;;;;;;24.10;6.97;;;10.30;1.00;;;;;;5002549;28;20440;-53
2023/05/27 05:29:41;;;;;;;15.97;6.87;;;10.40;1.00;;;;;;5002101;28;20482;-54
2023/05/27 05:32:08;;;;;;;20.80;6.50;;;10.70;1.00;;;;;;5004271;28;21022;-55
2023/05/27 05:34:34;;;;;;;17.97;6.03;;;10.90;1.00;;;;;;5003993;28;20205;-54
2023/05/27 05:36:59;;;;;;;25.00;7.53;;;11.00;99.90;;;;;;5003880;28;20443;-54
2023/05/27 05:39:25;;;;;;;19.10;6.30;;;11.10;99.90;;;;;;5001588;28;20189;-54
2023/05/27 05:41:51;;;;;;;19.93;6.50;;;11.20;37.90;;;;;;5008711;28;20188;-54
2023/05/27 05:44:17;;;;;;;21.73;6.97;;;11.30;1.00;;;;;;5004699;28;20188;-54
2023/05/27 05:46:42;;;;;;;22.40;6.80;;;11.50;1.00;;;;;;5005152;28;20255;-54
2023/05/27 05:49:08;;;;;;;20.50;7.00;;;11.70;1.00;;;;;;5004044;28;20472;-54
2023/05/27 05:51:35;;;;;;;17.80;6.83;;;11.90;99.90;;;;;;5001880;28;20195;-54
2023/05/27 05:54:00;;;;;;;20.20;6.47;;;12.10;1.00;;;;;;5001177;28;20188;-54
2023/05/27 05:56:26;;;;;;;26.20;7.00;;;12.30;1.00;;;;;;5000845;28;20817;-54
2023/05/27 05:58:52;;;;;;;23.17;6.23;;;12.50;99.90;;;;;;5004728;28;20278;-54
2023/05/27 06:01:18;;;;;;;17.53;5.97;;;12.70;99.90;;;;;;5002525;28;20620;-54
2023/05/27 06:03:44;;;;;;;22.13;6.67;;;12.90;86.70;;;;;;5001527;28;20202;-54
2023/05/27 06:06:09;;;;;;;15.70;5.20;;;13.00;9.10;;;;;;5002687;28;20193;-54
2023/05/27 06:08:35;;;;;;;20.13;5.50;;;13.00;1.00;;;;;;5000453;28;20474;-55
2023/05/27 06:11:01;;;;;;;20.70;5.00;;;13.20;1.00;;;;;;5008228;28;20306;-55
2023/05/27 06:13:26;;;;;;;17.70;6.23;;;13.40;1.00;;;;;;5002604;28;20644;-55
2023/05/27 06:15:52;;;;;;;21.53;6.17;;;13.60;1.00;;;;;;5007564;28;20192;-55
2023/05/27 06:18:17;;;;;;;16.33;5.00;;;13.90;1.00;;;;;;5005045;28;20754;-56
2023/05/27 06:20:43;;;;;;;17.17;5.20;;;14.10;1.00;;;;;;5001780;28;20567;-57
2023/05/27 06:23:09;;;;;;;12.03;5.00;;;14.30;1.00;;;;;;5000114;28;20215;-56
2023/05/27 06:25:34;;;;;;;17.33;5.60;;;14.20;1.00;;;;;;5002144;28;20190;-57
2023/05/27 06:28:00;;;;;;;13.83;5.77;;;14.30;1.00;;;;;;5003533;28;20267;-57
2023/05/27 06:30:26;;;;;;;16.07;5.93;;;14.50;1.00;;;;;;5003871;28;20372;-58
2023/05/27 06:32:52;;;;;;;21.57;6.57;;;14.70;1.00;;;;;;5001109;28;20447;-56
2023/05/27 06:35:18;;;;;;;19.73;5.20;;;14.90;1.00;;;;;;5007492;28;20445;-59
2023/05/27 06:37:43;;;;;;;15.40;6.37;;;15.10;1.00;;;;;;5009733;28;20184;-57
2023/05/27 06:40:10;;;;;;;14.03;5.40;;;15.30;1.00;;;;;;5002146;28;20191;-56
2023/05/27 06:42:36;;;;;;;21.03;5.77;;;15.50;1.00;;;;;;5004091;28;20193;-56
2023/05/27 06:45:02;;;;;;;21.03;6.17;;;15.70;1.00;;;;;;5000151;28;20451;-58
2023/05/27 06:47:28;;;;;;;12.83;5.27;;;16.00;1.00;;;;;;5000999;28;20445;-57
2023/05/27 06:49:54;;;;;;;17.73;5.57;;;16.10;1.00;;;;;;5004083;28;20478;-59
2023/05/27 06:52:19;;;;;;;20.67;6.30;;;16.20;1.00;;;;;;5002415;28;20190;-58
2023/05/27 06:54:47;;;;;;;23.03;6.00;;;16.40;1.00;;;;;;5003920;28;20197;-56
2023/05/27 06:57:12;;;;;;;20.27;5.67;;;16.80;1.00;;;;;;5008565;28;20236;-56
2023/05/27 06:59:38;;;;;;;15.00;5.00;;;17.00;1.00;;;;;;5004291;28;20922;-57
2023/05/27 07:02:04;;;;;;;16.73;5.90;;;17.20;1.00;;;;;;5000189;28;20215;-59
2023/05/27 07:04:29;;;;;;;18.23;5.47;;;17.40;1.00;;;;;;5010390;28;20269;-55
2023/05/27 07:06:55;;;;;;;12.97;4.87;;;17.60;1.00;;;;;;5001778;28;20294;-58
2023/05/27 07:09:20;;;;;;;17.17;6.03;;;17.70;1.00;;;;;;4991275;28;20222;-57
2023/05/27 07:11:46;;;;;;;17.23;5.40;;;17.60;1.00;;;;;;5006174;28;20192;-58
2023/05/27 07:14:12;;;;;;;17.63;5.60;;;17.80;1.00;;;;;;5005956;28;20205;-57
2023/05/27 07:16:37;;;;;;;15.63;5.20;;;18.00;1.00;;;;;;5007080;28;20184;-58
2023/05/27 07:19:03;;;;;;;17.80;6.40;;;18.20;1.00;;;;;;5004294;28;20190;-57
2023/05/27 07:21:29;;;;;;;14.10;4.70;;;18.40;1.00;;;;;;5003990;28;20191;-57
2023/05/27 07:23:58;;;;;;;15.10;5.10;;;18.60;1.00;;;;;;5002119;28;20230;-58
2023/05/27 07:26:25;;;;;;;29.13;6.03;;;18.70;1.00;;;;;;4996874;28;20929;-59
2023/05/27 07:28:51;;;;;;;9.20;4.40;;;18.70;1.00;;;;;;5003082;28;20441;-57
2023/05/27 07:31:17;;;;;;;20.10;4.90;;;19.00;1.00;;;;;;5001148;28;20497;-57
2023/05/27 07:33:43;;;;;;;18.40;4.80;;;19.30;1.00;;;;;;5005423;28;20437;-56
2023/05/27 07:36:10;;;;;;;17.37;5.00;;;19.70;1.00;;;;;;5008152;28;20184;-57
2023/05/27 07:38:35;;;;;;;16.73;5.47;;;19.50;1.00;;;;;;5006679;28;20190;-58
2023/05/27 07:41:01;;;;;;;17.60;4.67;;;19.60;1.00;;;;;;5007533;28;20575;-57
2023/05/27 07:43:26;;;;;;;15.70;5.23;;;19.90;1.00;;;;;;5009257;28;20257;-57
2023/05/27 07:45:52;;;;;;;14.80;4.97;;;20.20;1.00;;;;;;5008517;28;20298;-58
2023/05/27 07:48:18;;;;;;;12.67;4.10;;;20.50;1.00;;;;;;5009121;28;20187;-57
2023/05/27 07:50:43;;;;;;;13.30;5.10;;;20.80;1.00;;;;;;5009264;28;20579;-57
2023/05/27 07:53:09;;;;;;;16.67;4.90;;;20.80;1.00;;;;;;5001967;28;20187;-57
2023/05/27 07:55:35;;;;;;;16.60;5.70;;;20.70;1.00;;;;;;5009065;28;20670;-58
2023/05/27 07:58:00;;;;;;;19.80;4.93;;;20.90;1.00;;;;;;5002045;28;20278;-56
2023/05/27 08:00:26;;;;;;;12.83;4.20;;;21.10;1.00;;;;;;5006877;28;20199;-58
2023/05/27 08:02:51;;;;;;;16.23;4.57;;;21.10;1.00;;;;;;5004461;28;20181;-58
2023/05/27 08:05:17;;;;;;;12.70;4.70;;;21.20;1.00;;;;;;5006280;28;20187;-57
2023/05/27 08:07:42;;;;;;;16.40;5.57;;;21.20;1.00;;;;;;5009823;28;20550;-55
2023/05/27 08:10:09;;;;;;;17.10;5.70;;;21.40;1.00;;;;;;5003872;28;20269;-57
2023/05/27 08:12:34;;;;;;;21.50;5.60;;;21.30;1.00;;;;;;5003986;28;20663;-57
2023/05/27 08:15:00;;;;;;;14.33;4.70;;;21.20;1.00;;;;;;5005074;28;20449;-55
2023/05/27 08:17:26;;;;;;;17.30;5.00;;;21.40;1.00;;;;;;5007501;28;20213;-57
2023/05/27 08:19:51;;;;;;;17.20;5.10;;;21.40;1.00;;;;;;5001914;28;20622;-57
2023/05/27 08:22:17;;;;;;;15.70;4.90;;;21.50;1.00;;;;;;5004184;28;20561;-55
2023/05/27 08:24:43;;;;;;;14.77;5.40;;;21.70;1.00;;;;;;5008338;28;20192;-56
2023/05/27 08:27:18;;;;;;;10.97;4.53;;;21.90;1.00;;;;;;5006805;28;20185;-58
2023/05/27 08:29:44;;;;;;;14.30;4.87;;;22.10;1.00;;;;;;5004017;28;20227;-58
2023/05/27 08:32:10;;;;;;;13.70;5.13;;;22.00;1.00;;;;;;5001596;28;20813;-56
2023/05/27 08:34:36;;;;;;;12.73;5.20;;;22.00;1.00;;;;;;5005934;28;20193;-57
2023/05/27 08:37:03;;;;;;;20.77;5.30;;;22.10;1.00;;;;;;5004761;28;20920;-56
2023/05/27 08:39:28;;;;;;;13.13;5.10;;;22.20;1.00;;;;;;5010787;28;20208;-56
2023/05/27 08:41:54;;;;;;;15.97;5.40;;;22.40;1.00;;;;;;5005275;28;20913;-59
2023/05/27 08:44:23;;;;;;;18.37;5.00;;;22.80;1.00;;;;;;5007447;28;20250;-56
2023/05/27 08:46:50;;;;;;;17.60;5.07;;;23.10;1.00;;;;;;5005258;28;21370;-59
2023/05/27 08:49:16;;;;;;;19.03;5.70;;;23.30;1.00;;;;;;5001815;28;20459;-57
2023/05/27 08:51:45;;;;;;;17.00;5.50;;;23.40;1.00;;;;;;5004399;28;20441;-56
2023/05/27 08:54:11;;;;;;;16.30;5.00;;;23.30;1.00;;;;;;5000774;28;20937;-56
2023/05/27 08:56:39;;;;;;;14.27;4.67;;;22.40;1.00;;;;;;5005542;28;20855;-55
2023/05/27 08:59:05;;;;;;;14.53;5.00;;;21.50;1.00;;;;;;5001062;28;20465;-56
2023/05/27 09:01:32;;;;;;;16.80;4.90;;;21.60;1.00;;;;;;5003944;28;20475;-54
2023/05/27 09:03:58;;;;;;;11.73;4.83;;;22.10;1.00;;;;;;5001137;28;20237;-55
2023/05/27 09:06:24;;;;;;;18.97;5.17;;;22.20;1.00;;;;;;5005646;28;20461;-56
2023/05/27 09:08:49;;;;;;;15.70;5.03;;;21.60;1.00;;;;;;5004645;28;20444;-55
2023/05/27 09:11:27;;;;;;;13.50;4.70;;;20.90;1.00;;;;;;5004261;28;20707;-56
2023/05/27 09:13:56;;;;;;;14.60;4.97;;;20.30;1.00;;;;;;5001033;28;20231;-55
2023/05/27 09:16:22;;;;;;;17.37;5.20;;;19.90;1.00;;;;;;5009608;28;20439;-56
2023/05/27 09:18:48;;;;;;;14.20;4.47;;;19.50;1.00;;;;;;5000966;28;20791;-57
2023/05/27 09:21:15;;;;;;;14.90;5.30;;;19.10;1.00;;;;;;5005407;28;20436;-57
2023/05/27 09:23:41;;;;;;;14.20;5.60;;;19.20;1.00;;;;;;5002514;28;20448;-57
2023/05/27 09:26:10;;;;;;;20.70;5.07;;;20.10;1.00;;;;;;5007041;28;20432;-58
2023/05/27 09:28:37;;;;;;;14.90;5.33;;;21.30;1.00;;;;;;5008136;28;20193;-58
2023/05/27 09:31:07;;;;;;;23.63;6.17;;;22.30;1.00;;;;;;5002857;28;20478;-55
2023/05/27 09:33:38;;;;;;;15.97;5.10;;;23.20;1.00;;;;;;5011078;28;20958;-55
2023/05/27 09:36:04;;;;;;;14.50;5.33;;;23.80;1.00;;;;;;5002912;28;20436;-56
2023/05/27 09:38:31;;;;;;;14.70;5.50;;;24.20;1.00;;;;;;5002996;28;20491;-55
2023/05/27 09:41:00;;;;;;;24.00;6.53;;;24.20;1.00;;;;;;5006324;28;20439;-56
2023/05/27 09:43:27;;;;;;;13.73;6.00;;;24.90;1.00;;;;;;4999108;28;20454;-56
2023/05/27 09:46:01;;;;;;;16.30;5.83;;;25.30;1.00;;;;;;5002628;28;20442;-56
2023/05/27 09:48:30;;;;;;;20.23;5.80;;;25.30;1.00;;;;;;5001659;28;20817;-56
2023/05/27 09:50:57;;;;;;;16.97;5.67;;;25.30;1.00;;;;;;5000595;28;20888;-56
2023/05/27 09:53:24;;;;;;;13.40;4.60;;;25.10;1.00;;;;;;5006021;28;20688;-56
2023/05/27 09:55:50;;;;;;;11.87;4.93;;;25.20;1.00;;;;;;5003218;28;20485;-56
2023/05/27 09:58:17;;;;;;;14.07;5.50;;;25.40;99.90;;;;;;5009384;28;20802;-56
2023/05/27 10:00:44;;;;;;;15.40;5.10;;;25.80;99.90;;;;;;5001896;28;20446;-56
2023/05/27 10:03:10;;;;;;;11.60;5.20;;;25.20;99.90;;;;;;5006740;28;20447;-56
2023/05/27 10:05:36;;;;;;;14.43;5.40;;;24.30;99.90;;;;;;5007341;28;20432;-56
2023/05/27 10:08:03;;;;;;;14.63;4.70;;;23.60;99.90;;;;;;4999645;28;20206;-55
2023/05/27 10:10:29;;;;;;;15.33;5.57;;;23.10;99.90;;;;;;4990813;28;20582;-56
2023/05/27 10:12:56;;;;;;;14.80;5.70;;;22.70;99.90;;;;;;5005139;28;20776;-56
2023/05/27 10:15:29;;;;;;;17.17;5.33;;;22.70;99.90;;;;;;5005711;28;20432;-56
2023/05/27 10:17:55;;;;;;;12.53;5.20;;;23.20;1.00;;;;;;5003166;28;20441;-56
2023/05/27 10:20:30;;;;;;;13.20;4.80;;;23.70;99.90;;;;;;5006849;28;20998;-56
2023/05/27 10:22:57;;;;;;;14.87;5.20;;;23.80;99.90;;;;;;5007662;28;20248;-57
2023/05/27 10:25:35;;;;;;;12.60;5.27;;;24.20;99.90;;;;;;5003690;28;21017;-57
2023/05/27 10:28:00;;;;;;;12.97;5.20;;;25.10;99.90;;;;;;5001741;28;20452;-53
2023/05/27 10:30:26;;;;;;;11.67;5.20;;;25.90;99.90;;;;;;5000231;28;20485;-54
2023/05/27 10:32:54;;;;;;;19.27;6.27;;;26.60;99.90;;;;;;5003661;28;20205;-54
2023/05/27 10:35:25;;;;;;;17.50;6.30;;;26.90;99.90;;;;;;5002261;28;20778;-54
2023/05/27 10:37:50;;;;;;;17.80;5.80;;;26.70;99.90;;;;;;5005728;28;20439;-54
2023/05/27 10:40:24;;;;;;;13.77;5.43;;;25.60;99.90;;;;;;5005070;28;20434;-54
2023/05/27 10:43:00;;;;;;;13.13;6.07;;;25.10;99.90;;;;;;5004090;28;20193;-55
2023/05/27 10:45:33;;;;;;;88.90;25.00;;;24.90;99.90;;;;;;5008610;28;20948;-55
2023/05/27 10:47:59;;;;;;;17.83;6.90;;;25.50;99.90;;;;;;5006197;28;20466;-55
2023/05/27 10:50:32;;;;;;;32.10;8.97;;;25.80;99.90;;;;;;5007215;28;20974;-55
2023/05/27 10:52:59;;;;;;;14.30;5.70;;;25.10;99.90;;;;;;5003721;28;20183;-55
2023/05/27 10:55:25;;;;;;;17.70;5.83;;;24.60;99.90;;;;;;5003541;28;20946;-55
2023/05/27 10:57:51;;;;;;;34.37;7.00;;;24.70;99.90;;;;;;4986866;28;20478;-55
2023/05/27 11:00:20;;;;;;;19.23;5.80;;;25.70;99.90;;;;;;4985645;28;20238;-55
2023/05/27 11:02:46;;;;;;;17.50;5.83;;;26.00;99.90;;;;;;4984840;28;20435;-55
2023/05/27 11:05:14;;;;;;;13.50;5.47;;;26.40;99.90;;;;;;4988945;28;20431;-55
2023/05/27 11:07:40;;;;;;;53.07;15.77;;;26.10;99.90;;;;;;4987434;28;20481;-55
2023/05/27 11:10:07;;;;;;;30.93;9.63;;;26.20;99.90;;;;;;4989045;28;20944;-55
2023/05/27 11:12:33;;;;;;;11.80;5.47;;;26.50;99.90;;;;;;4986519;28;20933;-55
2023/05/27 11:14:59;;;;;;;13.90;6.10;;;26.80;99.90;;;;;;4988131;28;20432;-55
2023/05/27 11:17:25;;;;;;;12.90;5.23;;;27.20;99.90;;;;;;4986446;28;20279;-55
2023/05/27 11:19:51;;;;;;;15.90;6.20;;;27.50;99.90;;;;;;4983342;28;20193;-55
2023/05/27 11:22:18;;;;;;;12.20;5.23;;;28.00;99.90;;;;;;4982390;28;20444;-55
2023/05/27 11:24:58;;;;;;;18.60;5.77;;;28.40;99.90;;;;;;4986786;28;20207;-55
2023/05/27 11:27:24;;;;;;;14.23;5.27;;;28.90;99.90;;;;;;4989426;28;20833;-56
2023/05/27 11:29:52;;;;;;;17.50;4.93;;;29.20;99.90;;;;;;4985593;28;20487;-55
2023/05/27 11:32:18;;;;;;;18.47;6.07;;;29.00;99.90;;;;;;4989246;28;20444;-56
2023/05/27 11:34:45;;;;;;;11.47;4.70;;;29.10;99.90;;;;;;4981525;28;20451;-55
2023/05/27 11:37:12;;;;;;;15.13;5.30;;;28.90;99.90;;;;;;4985735;28;20498;-55
2023/05/27 11:39:37;;;;;;;10.30;5.10;;;27.80;99.90;;;;;;4986496;28;20528;-55
2023/05/27 11:42:08;;;;;;;10.97;5.10;;;26.50;99.90;;;;;;4985691;28;20530;-57
2023/05/27 11:44:34;;;;;;;14.00;5.53;;;25.30;99.90;;;;;;4987320;28;20256;-55
2023/05/27 11:47:00;;;;;;;17.47;5.37;;;24.40;99.90;;;;;;4982714;28;20440;-55
2023/05/27 11:49:27;;;;;;;33.97;10.20;;;24.00;99.90;;;;;;4987755;28;20546;-55
2023/05/27 11:51:56;;;;;;;17.03;6.57;;;23.30;99.90;;;;;;4987754;28;21211;-55
2023/05/27 11:54:30;;;;;;;44.90;13.50;;;22.90;99.90;;;;;;4985459;28;20532;-55
2023/05/27 11:56:58;;;;;;;24.03;8.37;;;23.20;99.90;;;;;;5001213;28;20487;-55
2023/05/27 11:59:25;;;;;;;17.67;6.50;;;24.10;99.90;;;;;;5005072;28;20850;-55
2023/05/27 12:01:53;;;;;;;14.53;5.40;;;24.90;99.90;;;;;;5007667;28;20547;-55
2023/05/27 12:04:19;;;;;;;13.57;5.70;;;25.80;99.90;;;;;;5004542;28;20770;-55
2023/05/27 12:06:46;;;;;;;16.83;6.90;;;26.50;99.90;;;;;;5006800;28;20465;-55
2023/05/27 12:09:11;;;;;;;16.97;7.00;;;26.90;99.90;;;;;;5002412;28;20442;-55
2023/05/27 12:11:38;;;;;;;17.77;6.40;;;27.00;99.90;;;;;;5004885;28;20450;-55
2023/05/27 12:14:04;;;;;;;16.87;6.23;;;27.10;99.90;;;;;;5003699;28;20220;-55
2023/05/27 12:16:30;;;;;;;36.37;6.60;;;27.30;99.90;;;;;;5001326;28;20470;-55
2023/05/27 12:18:57;;;;;;;15.70;5.10;;;27.40;99.90;;;;;;5004804;28;20478;-54
2023/05/27 12:21:22;;;;;;;13.23;5.40;;;27.20;99.90;;;;;;5005093;28;20871;-54
2023/05/27 12:23:48;;;;;;;12.17;5.40;;;27.60;99.90;;;;;;5003809;28;20468;-55
2023/05/27 12:26:15;;;;;;;10.50;5.27;;;27.90;99.90;;;;;;5008098;28;20243;-54
2023/05/27 12:28:41;;;;;;;16.03;5.90;;;28.10;99.90;;;;;;5006544;28;20290;-55
2023/05/27 12:31:07;;;;;;;15.50;5.90;;;27.90;99.90;;;;;;5006529;28;20472;-55
2023/05/27 12:33:34;;;;;;;14.40;6.77;;;27.40;99.90;;;;;;5007416;28;20442;-55
2023/05/27 12:36:00;;;;;;;13.20;6.30;;;26.70;99.90;;;;;;5004648;28;20185;-55
2023/05/27 12:38:26;;;;;;;13.80;5.73;;;26.60;99.90;;;;;;5003634;28;20893;-54
2023/05/27 12:40:52;;;;;;;13.40;5.87;;;26.60;99.90;;;;;;5001797;28;20475;-55
2023/05/27 12:43:18;;;;;;;17.83;6.47;;;27.00;99.90;;;;;;5006900;28;20447;-55
2023/05/27 12:45:45;;;;;;;17.30;5.90;;;27.30;99.90;;;;;;5003128;28;20196;-55